Time;durP1;ratioP1;P1;durP2;ratioP2;P2;SDS_P1;SDS_P2;PMS_P1;PMS_P2;Temp;Humidity;BMP_temperature;BMP_pressure;BME280_temperature;BME280_humidity;BME280_pressure;Samples;Min_cycle;Max_cycle;Signal;HPM_P1;HPM_P2
2023/10/14 00:03:55;;;;;;;14.57;4.32;;;;;;;;;;8278893;28;20107;-72
2023/10/14 00:07:56;;;;;;;12.68;4.28;;;;;;;;;;8282116;28;20112;-72
2023/10/14 00:11:56;;;;;;;9.88;4.38;;;;;;;;;;8282762;28;20700;-72
2023/10/14 00:16:01;;;;;;;8.55;4.22;;;;;;;;;;8281987;28;20029;-72
2023/10/14 00:20:01;;;;;;;10.00;4.05;;;;;;;;;;8265837;28;20048;-72
2023/10/14 00:24:06;;;;;;;14.30;4.43;;;;;;;;;;8266700;28;20072;-72
2023/10/14 00:28:12;;;;;;;16.30;4.45;;;;;;;;;;8269945;28;20082;-72
2023/10/14 00:32:12;;;;;;;10.38;4.03;;;;;;;;;;8279195;28;21118;-72
2023/10/14 00:36:16;;;;;;;13.57;4.22;;;;;;;;;;8279230;28;20033;-72
2023/10/14 00:40:22;;;;;;;16.02;4.60;;;;;;;;;;8276761;28;20095;-72
2023/10/14 00:44:26;;;;;;;14.02;4.72;;;;;;;;;;8264504;28;20151;-72
2023/10/14 00:48:29;;;;;;;8.10;4.40;;;;;;;;;;8278326;28;20033;-72
2023/10/14 00:52:30;;;;;;;8.02;4.47;;;;;;;;;;8277619;28;20017;-72
2023/10/14 00:56:31;;;;;;;11.27;5.10;;;;;;;;;;8280704;28;20879;-72
2023/10/14 01:00:37;;;;;;;10.82;4.90;;;;;;;;;;8279616;28;20035;-72
2023/10/14 01:04:40;;;;;;;11.05;4.45;;;;;;;;;;8278681;28;20033;-72
2023/10/14 01:08:43;;;;;;;8.75;4.35;;;;;;;;;;8280635;28;20044;-72
2023/10/14 01:12:53;;;;;;;8.52;4.55;;;;;;;;;;8267918;28;20076;-72
2023/10/14 01:16:53;;;;;;;12.35;4.55;;;;;;;;;;8278247;28;20873;-72
2023/10/14 01:20:57;;;;;;;7.82;3.50;;;;;;;;;;8276736;28;20029;-71
2023/10/14 01:24:57;;;;;;;13.00;4.22;;;;;;;;;;8277446;28;20026;-72
2023/10/14 01:29:00;;;;;;;14.40;4.10;;;;;;;;;;8278026;28;20044;-73
2023/10/14 01:33:15;;;;;;;17.30;4.50;;;;;;;;;;8273321;28;20044;-72
2023/10/14 01:37:19;;;;;;;9.23;3.45;;;;;;;;;;8278719;28;20136;-73
2023/10/14 01:41:19;;;;;;;;;;;;;;;;;;8277693;28;20021;-72
2023/10/14 01:45:20;;;;;;;11.77;3.97;;;;;;;;;;8274276;28;19912;-72
2023/10/14 01:49:21;;;;;;;10.82;3.28;;;;;;;;;;8274912;28;20029;-72
2023/10/14 01:53:26;;;;;;;19.83;3.70;;;;;;;;;;8276716;28;20103;-73
2023/10/14 01:57:27;;;;;;;15.18;4.07;;;;;;;;;;8278691;28;20020;-72
2023/10/14 02:01:30;;;;;;;16.23;4.18;;;;;;;;;;8275586;28;20033;-72
2023/10/14 02:05:34;;;;;;;15.57;4.03;;;;;;;;;;8275672;28;20497;-72
2023/10/14 02:09:35;;;;;;;15.68;4.47;;;;;;;;;;8277383;28;20053;-72
2023/10/14 02:13:36;;;;;;;12.82;4.20;;;;;;;;;;8277417;28;20025;-72
2023/10/14 02:17:36;;;;;;;19.65;4.47;;;;;;;;;;8274708;28;20687;-72
2023/10/14 02:21:37;;;;;;;13.85;4.40;;;;;;;;;;8279467;28;20033;-73
2023/10/14 02:25:38;;;;;;;8.82;4.30;;;;;;;;;;8282560;28;20033;-73
2023/10/14 02:29:42;;;;;;;10.43;4.20;;;;;;;;;;8283651;28;20080;-72
2023/10/14 02:33:45;;;;;;;14.00;4.50;;;;;;;;;;8272266;28;20494;-72
2023/10/14 02:37:49;;;;;;;10.20;4.17;;;;;;;;;;8284362;28;20026;-72
2023/10/14 02:46:05;;;;;;;14.25;5.13;;;;;;;;;;8282719;28;20076;-72
2023/10/14 02:50:08;;;;;;;14.10;4.47;;;;;;;;;;8282898;28;20034;-72
2023/10/14 02:54:26;;;;;;;13.80;4.50;;;;;;;;;;8279932;28;20032;-72
2023/10/14 02:58:29;;;;;;;12.43;4.30;;;;;;;;;;8282094;28;20022;-73
2023/10/14 03:06:53;;;;;;;11.90;4.60;;;;;;;;;;8283817;28;20062;-72
2023/10/14 03:10:56;;;;;;;15.35;4.43;;;;;;;;;;8282501;28;20032;-72
2023/10/14 03:14:56;;;;;;;14.73;4.32;;;;;;;;;;8284157;28;20030;-72
2023/10/14 03:18:56;;;;;;;16.25;4.28;;;;;;;;;;8281025;28;20087;-72
2023/10/14 03:23:18;;;;;;;11.65;4.18;;;;;;;;;;8282101;28;20044;-73
2023/10/14 03:27:19;;;;;;;11.38;4.47;;;;;;;;;;8272414;28;20021;-72
2023/10/14 03:31:19;;;;;;;9.40;3.40;;;;;;;;;;8263516;28;20103;-72
2023/10/14 03:35:21;;;;;;;6.70;3.25;;;;;;;;;;8278757;28;20079;-73
2023/10/14 03:39:37;;;;;;;10.13;3.40;;;;;;;;;;8279458;28;20025;-73
2023/10/14 03:43:48;;;;;;;12.15;2.78;;;;;;;;;;8282472;28;20040;-72
2023/10/14 03:47:52;;;;;;;6.70;2.20;;;;;;;;;;8279245;28;20045;-72
2023/10/14 03:51:56;;;;;;;7.80;1.90;;;;;;;;;;8271606;28;20024;-73
2023/10/14 03:55:57;;;;;;;8.80;1.70;;;;;;;;;;8280574;28;20025;-72
2023/10/14 04:00:06;;;;;;;5.05;1.58;;;;;;;;;;8267983;28;20116;-72
2023/10/14 04:04:18;;;;;;;4.00;1.42;;;;;;;;;;8279127;28;20055;-72
2023/10/14 04:08:25;;;;;;;6.97;1.77;;;;;;;;;;8279055;28;20029;-73
2023/10/14 04:12:38;;;;;;;3.90;1.48;;;;;;;;;;8282715;28;20021;-72
2023/10/14 04:20:46;;;;;;;6.22;1.30;;;;;;;;;;8280695;28;20032;-72
2023/10/14 04:24:46;;;;;;;4.88;1.23;;;;;;;;;;8282144;28;20040;-73
2023/10/14 04:28:59;;;;;;;4.53;1.05;;;;;;;;;;8281540;28;20470;-73
2023/10/14 04:37:07;;;;;;;5.10;1.10;;;;;;;;;;8280510;28;20618;-73
2023/10/14 04:41:14;;;;;;;1.83;0.88;;;;;;;;;;8277036;28;20031;-73
2023/10/14 04:45:16;;;;;;;3.40;1.10;;;;;;;;;;8280010;28;21120;-72
2023/10/14 04:49:16;;;;;;;2.72;0.82;;;;;;;;;;8267285;28;20017;-73
2023/10/14 04:53:17;;;;;;;5.30;0.90;;;;;;;;;;8266080;28;20040;-72
2023/10/14 04:57:21;;;;;;;6.63;0.95;;;;;;;;;;8279728;28;20052;-73
2023/10/14 05:01:24;;;;;;;2.42;0.77;;;;;;;;;;8281741;28;20732;-72
2023/10/14 05:05:24;;;;;;;5.53;0.82;;;;;;;;;;8265758;28;20025;-72
2023/10/14 05:09:30;;;;;;;1.40;0.80;;;;;;;;;;8280648;28;20096;-72
2023/10/14 05:13:33;;;;;;;3.58;0.90;;;;;;;;;;8277906;28;20056;-73
2023/10/14 05:17:33;;;;;;;3.40;0.85;;;;;;;;;;8279480;28;20029;-73
2023/10/14 05:21:36;;;;;;;3.58;0.80;;;;;;;;;;8282340;28;20114;-73
2023/10/14 05:25:39;;;;;;;3.08;0.70;;;;;;;;;;8268319;28;20032;-72
2023/10/14 05:29:39;;;;;;;1.23;0.60;;;;;;;;;;8279908;28;20494;-73
2023/10/14 05:33:39;;;;;;;1.38;0.60;;;;;;;;;;8278597;28;20160;-72
2023/10/14 05:37:41;;;;;;;10.02;0.90;;;;;;;;;;8265120;28;20087;-73
2023/10/14 05:41:43;;;;;;;3.40;0.80;;;;;;;;;;8280488;28;20025;-72
2023/10/14 05:45:45;;;;;;;1.95;0.70;;;;;;;;;;8282186;28;20163;-72
2023/10/14 05:49:46;;;;;;;1.55;0.50;;;;;;;;;;8281865;28;20071;-73
2023/10/14 05:53:47;;;;;;;1.85;0.77;;;;;;;;;;8278936;28;20037;-73
2023/10/14 05:57:47;;;;;;;2.20;0.60;;;;;;;;;;8278917;28;20473;-72
2023/10/14 06:01:48;;;;;;;1.23;0.50;;;;;;;;;;8280255;28;20119;-72
2023/10/14 06:05:49;;;;;;;1.98;0.57;;;;;;;;;;8280710;28;20114;-72
2023/10/14 06:09:49;;;;;;;1.10;0.60;;;;;;;;;;8281113;28;20520;-73
2023/10/14 06:13:49;;;;;;;1.98;0.60;;;;;;;;;;8281425;28;20056;-74
2023/10/14 06:17:54;;;;;;;0.43;0.43;;;;;;;;;;8264148;28;20048;-74
2023/10/14 06:21:56;;;;;;;0.43;0.40;;;;;;;;;;8281581;28;20144;-73
2023/10/14 06:25:56;;;;;;;1.65;0.60;;;;;;;;;;8277913;28;20029;-73
2023/10/14 06:29:56;;;;;;;1.02;0.40;;;;;;;;;;8276217;28;20032;-74
2023/10/14 06:33:56;;;;;;;1.73;0.60;;;;;;;;;;8278682;28;20041;-73
2023/10/14 06:37:58;;;;;;;0.60;0.55;;;;;;;;;;8278811;28;20033;-73
2023/10/14 06:41:59;;;;;;;0.88;0.50;;;;;;;;;;8278477;28;20795;-73
2023/10/14 06:45:59;;;;;;;0.47;0.40;;;;;;;;;;8277884;28;20484;-74
2023/10/14 06:50:01;;;;;;;1.15;0.70;;;;;;;;;;8280891;28;20147;-73
2023/10/14 06:54:03;;;;;;;0.70;0.40;;;;;;;;;;8279211;28;20021;-73
2023/10/14 06:58:05;;;;;;;1.40;0.40;;;;;;;;;;8279075;28;20036;-73
2023/10/14 07:02:06;;;;;;;0.30;0.30;;;;;;;;;;8280375;28;20033;-73
2023/10/14 07:06:09;;;;;;;0.75;0.47;;;;;;;;;;8263282;28;20032;-74
2023/10/14 07:10:10;;;;;;;0.40;0.40;;;;;;;;;;8283419;28;20033;-73
2023/10/14 07:14:10;;;;;;;0.30;0.30;;;;;;;;;;8284508;28;20040;-73
2023/10/14 07:18:13;;;;;;;0.65;0.47;;;;;;;;;;8284851;28;20040;-73
2023/10/14 07:22:18;;;;;;;0.40;0.40;;;;;;;;;;8287918;28;22216;-74
2023/10/14 07:26:18;;;;;;;0.85;0.55;;;;;;;;;;8287092;28;20152;-73
2023/10/14 07:30:19;;;;;;;0.30;0.30;;;;;;;;;;8286901;28;20060;-73
2023/10/14 07:34:19;;;;;;;0.30;0.30;;;;;;;;;;8284505;28;20663;-73
2023/10/14 07:38:20;;;;;;;0.40;0.40;;;;;;;;;;8283407;28;20038;-73
2023/10/14 07:42:21;;;;;;;0.80;0.40;;;;;;;;;;8283304;28;20064;-73
2023/10/14 07:46:23;;;;;;;0.40;0.40;;;;;;;;;;8285746;28;20034;-72
2023/10/14 07:50:23;;;;;;;0.45;0.30;;;;;;;;;;8286949;28;20115;-73
2023/10/14 07:54:23;;;;;;;0.40;0.30;;;;;;;;;;8286460;28;20668;-73
2023/10/14 07:58:25;;;;;;;0.47;0.30;;;;;;;;;;8284995;28;20029;-73
2023/10/14 08:02:26;;;;;;;0.60;0.30;;;;;;;;;;8285122;28;20729;-73
2023/10/14 08:06:26;;;;;;;0.30;0.30;;;;;;;;;;8275514;28;20974;-73
2023/10/14 08:10:27;;;;;;;0.20;0.20;;;;;;;;;;8287829;28;20052;-73
2023/10/14 08:14:30;;;;;;;0.38;0.30;;;;;;;;;;8290923;28;20030;-72
2023/10/14 08:18:31;;;;;;;0.30;0.30;;;;;;;;;;8279877;28;20064;-73
2023/10/14 08:22:33;;;;;;;0.45;0.30;;;;;;;;;;8288959;28;20025;-73
2023/10/14 08:26:36;;;;;;;0.30;0.30;;;;;;;;;;8288728;28;20194;-73
2023/10/14 08:30:45;;;;;;;0.40;0.40;;;;;;;;;;8291962;28;20045;-74
2023/10/14 08:34:45;;;;;;;0.75;0.50;;;;;;;;;;8291876;28;20405;-73
2023/10/14 08:38:47;;;;;;;120.55;11.07;;;;;;;;;;8286723;28;20032;-72
2023/10/14 08:42:51;;;;;;;33.42;3.47;;;;;;;;;;8280815;28;20371;-73
2023/10/14 08:46:51;;;;;;;;;;;;;;;;;;8268828;28;20038;-73
2023/10/14 08:50:56;;;;;;;3.55;0.85;;;;;;;;;;8280034;28;19918;-72
2023/10/14 08:54:56;;;;;;;4.13;1.00;;;;;;;;;;8280708;28;20087;-73
2023/10/14 08:58:57;;;;;;;3.35;1.00;;;;;;;;;;8288683;28;20797;-72
2023/10/14 09:03:00;;;;;;;2.93;1.07;;;;;;;;;;8320394;28;20057;-74
2023/10/14 09:07:03;;;;;;;4.37;1.20;;;;;;;;;;8340827;28;20738;-75
2023/10/14 09:11:03;;;;;;;4.75;1.00;;;;;;;;;;8326058;28;20291;-73
2023/10/14 09:15:04;;;;;;;3.05;1.02;;;;;;;;;;8325445;28;20148;-73
2023/10/14 09:19:05;;;;;;;3.78;1.10;;;;;;;;;;8341458;28;20001;-73
2023/10/14 09:23:19;;;;;;;2.05;0.90;;;;;;;;;;8322112;28;20060;-74
2023/10/14 09:27:19;;;;;;;;;;;;;;;;;;8331719;28;20025;-75
2023/10/14 09:31:21;;;;;;;1.48;0.80;;;;;;;;;;8314389;28;19923;-73
2023/10/14 09:35:25;;;;;;;1.88;0.90;;;;;;;;;;8325382;28;20022;-74
2023/10/14 09:39:28;;;;;;;1.00;0.70;;;;;;;;;;8340724;28;20021;-74
2023/10/14 09:43:29;;;;;;;1.30;0.80;;;;;;;;;;8332227;28;20099;-73
2023/10/14 09:47:29;;;;;;;1.00;0.70;;;;;;;;;;8323114;28;20064;-73
2023/10/14 09:51:31;;;;;;;1.35;0.60;;;;;;;;;;8324411;28;20025;-74
2023/10/14 09:55:31;;;;;;;1.40;0.70;;;;;;;;;;8311919;28;20032;-73
2023/10/14 09:59:42;;;;;;;1.23;0.75;;;;;;;;;;8313097;28;20029;-75
2023/10/14 10:03:48;;;;;;;0.90;0.77;;;;;;;;;;8327244;28;20047;-74
2023/10/14 10:07:57;;;;;;;1.42;0.85;;;;;;;;;;8319880;28;20032;-73
2023/10/14 10:11:58;;;;;;;1.38;0.82;;;;;;;;;;8322908;28;20028;-74
2023/10/14 10:16:06;;;;;;;0.90;0.70;;;;;;;;;;8334207;28;20084;-74
2023/10/14 10:20:12;;;;;;;2.55;0.90;;;;;;;;;;8331615;28;20021;-75
2023/10/14 10:24:15;;;;;;;6.32;1.33;;;;;;;;;;8328949;28;20128;-78
2023/10/14 10:28:27;;;;;;;3.70;1.27;;;;;;;;;;8328850;28;20025;-74
2023/10/14 10:32:31;;;;;;;3.58;1.20;;;;;;;;;;8324627;28;20041;-76
2023/10/14 10:36:32;;;;;;;4.85;1.30;;;;;;;;;;8295884;28;20013;-73
2023/10/14 10:40:33;;;;;;;5.97;1.30;;;;;;;;;;8279668;28;20017;-72
2023/10/14 10:44:34;;;;;;;5.82;1.70;;;;;;;;;;8283754;28;20127;-72
2023/10/14 10:48:40;;;;;;;4.43;1.10;;;;;;;;;;8285886;28;20033;-72
2023/10/14 10:52:41;;;;;;;3.08;1.30;;;;;;;;;;8287408;28;20029;-73
2023/10/14 10:56:41;;;;;;;2.15;1.27;;;;;;;;;;8285785;28;20051;-73
2023/10/14 11:00:42;;;;;;;4.22;1.38;;;;;;;;;;8285789;28;20080;-72
2023/10/14 11:04:43;;;;;;;2.92;1.15;;;;;;;;;;8282554;28;20080;-72
2023/10/14 11:08:46;;;;;;;3.60;1.35;;;;;;;;;;8286903;28;20641;-73
2023/10/14 11:12:46;;;;;;;1.60;1.10;;;;;;;;;;8270003;28;20025;-72
2023/10/14 11:16:53;;;;;;;3.95;1.30;;;;;;;;;;8284974;28;20044;-73
2023/10/14 11:20:54;;;;;;;2.88;1.33;;;;;;;;;;8286207;28;20021;-73
2023/10/14 11:24:55;;;;;;;2.28;1.13;;;;;;;;;;8287681;28;20044;-72
2023/10/14 11:28:59;;;;;;;4.28;1.23;;;;;;;;;;8289618;28;20049;-73
2023/10/14 11:32:59;;;;;;;3.90;1.50;;;;;;;;;;8283718;28;20549;-73
2023/10/14 11:36:59;;;;;;;2.38;1.40;;;;;;;;;;8287069;28;20884;-73
2023/10/14 11:41:02;;;;;;;2.92;1.40;;;;;;;;;;8284613;28;20107;-73
2023/10/14 11:45:06;;;;;;;3.10;1.23;;;;;;;;;;8285926;28;20029;-73
2023/10/14 11:49:06;;;;;;;;;;;;;;;;;;8285664;28;20037;-73
2023/10/14 11:53:06;;;;;;;3.00;1.30;;;;;;;;;;8285179;28;20062;-73
2023/10/14 11:57:07;;;;;;;5.05;1.38;;;;;;;;;;8285444;28;20029;-73
2023/10/14 12:01:11;;;;;;;4.22;1.38;;;;;;;;;;8282458;28;20037;-73
2023/10/14 12:05:11;;;;;;;3.42;1.20;;;;;;;;;;8286159;28;22568;-73
2023/10/14 12:09:11;;;;;;;4.68;1.23;;;;;;;;;;8270039;28;20033;-73
2023/10/14 12:13:12;;;;;;;2.60;1.10;;;;;;;;;;8285675;28;20891;-73
2023/10/14 12:17:14;;;;;;;6.93;1.30;;;;;;;;;;8285075;28;20036;-72
2023/10/14 12:21:14;;;;;;;3.85;1.48;;;;;;;;;;8285041;28;20024;-73
2023/10/14 12:25:17;;;;;;;4.72;1.13;;;;;;;;;;8285795;28;20771;-73
2023/10/14 12:29:20;;;;;;;2.67;1.20;;;;;;;;;;8285334;28;20029;-72
2023/10/14 12:33:21;;;;;;;3.72;1.42;;;;;;;;;;8287180;28;20033;-73
2023/10/14 12:37:21;;;;;;;3.15;1.10;;;;;;;;;;8285919;28;20692;-73
2023/10/14 12:41:21;;;;;;;4.32;1.00;;;;;;;;;;8285609;28;20713;-73
2023/10/14 12:45:25;;;;;;;4.65;1.30;;;;;;;;;;8286458;28;20223;-73
2023/10/14 12:49:26;;;;;;;7.57;1.30;;;;;;;;;;8287953;28;20116;-73
2023/10/14 12:53:26;;;;;;;1.67;0.98;;;;;;;;;;8291090;28;20111;-73
2023/10/14 12:57:26;;;;;;;3.63;1.08;;;;;;;;;;8288885;28;20016;-73
2023/10/14 13:01:26;;;;;;;3.50;1.08;;;;;;;;;;8291131;28;20795;-73
2023/10/14 13:05:27;;;;;;;3.45;1.10;;;;;;;;;;8269822;28;20909;-73
2023/10/14 13:09:27;;;;;;;2.88;1.33;;;;;;;;;;8283736;28;20028;-72
2023/10/14 13:13:28;;;;;;;3.95;1.05;;;;;;;;;;8286269;28;20016;-73
2023/10/14 13:17:28;;;;;;;3.15;1.33;;;;;;;;;;8268931;28;20049;-73
2023/10/14 13:21:31;;;;;;;4.63;1.10;;;;;;;;;;8286156;28;20025;-73
2023/10/14 13:25:36;;;;;;;4.10;1.25;;;;;;;;;;8283922;28;20580;-73
2023/10/14 13:29:36;;;;;;;2.95;1.00;;;;;;;;;;8284165;28;20415;-72
2023/10/14 13:33:37;;;;;;;3.45;1.08;;;;;;;;;;8282952;28;20114;-73
2023/10/14 13:37:43;;;;;;;1.75;0.82;;;;;;;;;;8284256;28;20029;-73
2023/10/14 13:41:48;;;;;;;2.60;0.93;;;;;;;;;;8279759;28;20026;-72
2023/10/14 13:45:52;;;;;;;3.78;1.30;;;;;;;;;;8280772;28;20037;-73
2023/10/14 13:49:52;;;;;;;4.10;1.20;;;;;;;;;;8278877;28;20084;-73
2023/10/14 13:53:52;;;;;;;4.13;1.25;;;;;;;;;;8280748;28;20030;-73
2023/10/14 13:57:52;;;;;;;3.05;1.00;;;;;;;;;;8280713;28;20029;-73
2023/10/14 14:01:53;;;;;;;6.53;1.23;;;;;;;;;;8279005;28;20080;-73
2023/10/14 14:05:53;;;;;;;4.85;1.20;;;;;;;;;;8282058;28;20040;-74
2023/10/14 14:09:53;;;;;;;4.82;1.00;;;;;;;;;;8279254;28;20517;-73
2023/10/14 14:13:57;;;;;;;4.40;1.23;;;;;;;;;;8279617;28;20033;-73
2023/10/14 14:18:00;;;;;;;4.90;1.40;;;;;;;;;;8278589;28;20030;-73
2023/10/14 14:22:01;;;;;;;5.22;1.35;;;;;;;;;;8277305;28;20524;-72
2023/10/14 14:26:01;;;;;;;3.45;0.95;;;;;;;;;;8279902;28;20147;-73
2023/10/14 14:30:06;;;;;;;2.37;1.00;;;;;;;;;;8279002;28;20033;-73
2023/10/14 14:34:08;;;;;;;4.93;1.35;;;;;;;;;;8277789;28;20323;-73
2023/10/14 14:38:11;;;;;;;4.10;1.10;;;;;;;;;;8278707;28;20021;-72
2023/10/14 14:42:13;;;;;;;3.55;1.10;;;;;;;;;;8277332;28;20063;-73
2023/10/14 14:46:13;;;;;;;2.38;1.17;;;;;;;;;;8279048;28;20170;-72
2023/10/14 14:50:16;;;;;;;4.05;1.17;;;;;;;;;;8263877;28;20125;-73
2023/10/14 14:54:18;;;;;;;4.68;1.30;;;;;;;;;;8278541;28;20025;-73
2023/10/14 14:58:18;;;;;;;2.65;1.00;;;;;;;;;;8280260;28;20744;-73
2023/10/14 15:02:19;;;;;;;2.03;1.10;;;;;;;;;;8278858;28;20029;-72
2023/10/14 15:06:20;;;;;;;3.72;1.17;;;;;;;;;;8281173;28;20294;-72
2023/10/14 15:10:21;;;;;;;6.35;1.17;;;;;;;;;;8278550;28;20036;-72
2023/10/14 15:14:21;;;;;;;4.65;0.90;;;;;;;;;;8278631;28;20749;-72
2023/10/14 15:18:22;;;;;;;5.75;1.25;;;;;;;;;;8281426;28;20044;-72
2023/10/14 15:22:23;;;;;;;4.85;1.60;;;;;;;;;;8280520;28;20132;-72
2023/10/14 15:26:24;;;;;;;4.35;0.98;;;;;;;;;;8262104;28;20119;-72
2023/10/14 15:30:24;;;;;;;2.13;1.13;;;;;;;;;;8265312;28;20044;-72
2023/10/14 15:34:27;;;;;;;2.92;0.90;;;;;;;;;;8285025;28;20032;-72
2023/10/14 15:38:28;;;;;;;4.43;1.50;;;;;;;;;;8269663;28;20481;-73
2023/10/14 15:42:28;;;;;;;3.83;1.48;;;;;;;;;;8282409;28;20781;-72
2023/10/14 15:46:28;;;;;;;4.15;1.35;;;;;;;;;;8274347;28;20057;-72
2023/10/14 15:50:35;;;;;;;3.45;1.05;;;;;;;;;;8284032;28;20438;-71
2023/10/14 15:54:36;;;;;;;3.63;1.30;;;;;;;;;;8270557;28;20025;-73
2023/10/14 15:58:36;;;;;;;3.05;1.10;;;;;;;;;;8283106;28;20575;-73
2023/10/14 16:02:36;;;;;;;5.18;1.23;;;;;;;;;;8265951;28;20124;-72
2023/10/14 16:06:36;;;;;;;5.50;1.27;;;;;;;;;;8283459;28;20618;-72
2023/10/14 16:10:39;;;;;;;4.23;1.47;;;;;;;;;;8284324;28;20047;-72
2023/10/14 16:14:40;;;;;;;4.47;1.42;;;;;;;;;;8284240;28;20028;-72
2023/10/14 16:18:40;;;;;;;4.50;1.23;;;;;;;;;;8285001;28;20033;-72
2023/10/14 16:22:40;;;;;;;4.00;1.10;;;;;;;;;;8282120;28;20040;-73
2023/10/14 16:26:40;;;;;;;3.63;1.23;;;;;;;;;;8283552;28;20040;-72
2023/10/14 16:30:41;;;;;;;4.18;1.10;;;;;;;;;;8265076;28;20038;-72
2023/10/14 16:34:41;;;;;;;4.03;1.10;;;;;;;;;;8284271;28;20798;-72
2023/10/14 16:38:43;;;;;;;3.38;1.20;;;;;;;;;;8283363;28;20349;-71
2023/10/14 16:42:46;;;;;;;5.47;1.40;;;;;;;;;;8279720;28;20662;-72
2023/10/14 16:46:46;;;;;;;3.83;1.17;;;;;;;;;;8283384;28;20111;-72
2023/10/14 16:50:46;;;;;;;3.30;1.17;;;;;;;;;;8281046;28;20044;-72
2023/10/14 16:54:47;;;;;;;3.35;1.02;;;;;;;;;;8283295;28;20805;-72
2023/10/14 16:58:47;;;;;;;4.25;1.20;;;;;;;;;;8281774;28;20037;-72
2023/10/14 17:02:49;;;;;;;5.45;1.50;;;;;;;;;;8280658;28;20032;-72
2023/10/14 17:06:53;;;;;;;4.35;1.40;;;;;;;;;;8280935;28;20021;-73
2023/10/14 17:10:53;;;;;;;5.50;1.50;;;;;;;;;;8280997;28;20024;-72
2023/10/14 17:14:53;;;;;;;3.90;1.52;;;;;;;;;;8284512;28;20667;-72
2023/10/14 17:18:54;;;;;;;4.47;1.47;;;;;;;;;;8280234;28;20041;-73
2023/10/14 17:22:57;;;;;;;6.15;2.05;;;;;;;;;;8282144;28;20697;-73
2023/10/14 17:26:57;;;;;;;6.80;1.98;;;;;;;;;;8279162;28;20905;-73
2023/10/14 17:30:57;;;;;;;5.10;1.67;;;;;;;;;;8279948;28;20041;-73
2023/10/14 17:35:00;;;;;;;4.40;1.65;;;;;;;;;;8282322;28;20025;-73
2023/10/14 17:39:05;;;;;;;4.07;1.25;;;;;;;;;;8282000;28;20639;-72
2023/10/14 17:43:06;;;;;;;6.68;1.30;;;;;;;;;;8276065;28;20339;-73
2023/10/14 17:47:07;;;;;;;6.72;1.65;;;;;;;;;;8281807;28;20037;-72
2023/10/14 17:51:08;;;;;;;3.85;1.50;;;;;;;;;;8264046;28;20017;-73
2023/10/14 17:55:10;;;;;;;6.32;1.58;;;;;;;;;;8280163;28;20009;-73
2023/10/14 17:59:11;;;;;;;4.45;1.55;;;;;;;;;;8282579;28;20118;-73
2023/10/14 18:03:16;;;;;;;5.20;1.50;;;;;;;;;;8279714;28;20038;-73
2023/10/14 18:07:16;;;;;;;6.53;1.63;;;;;;;;;;8281635;28;20024;-72
2023/10/14 18:11:16;;;;;;;11.18;1.50;;;;;;;;;;8280986;28;20021;-72
2023/10/14 18:15:16;;;;;;;6.60;1.58;;;;;;;;;;8280320;28;20063;-73
2023/10/14 18:19:17;;;;;;;5.30;1.50;;;;;;;;;;8281349;28;20036;-73
2023/10/14 18:23:17;;;;;;;3.77;1.30;;;;;;;;;;8278664;28;20717;-73
2023/10/14 18:27:17;;;;;;;3.08;1.38;;;;;;;;;;8263618;28;21222;-73
2023/10/14 18:31:17;;;;;;;5.38;1.33;;;;;;;;;;8278589;28;20134;-73
2023/10/14 18:35:19;;;;;;;3.17;1.08;;;;;;;;;;8277385;28;20021;-73
2023/10/14 18:39:19;;;;;;;3.70;1.20;;;;;;;;;;8276666;28;20025;-73
2023/10/14 18:43:19;;;;;;;4.55;1.40;;;;;;;;;;8275632;28;20119;-73
2023/10/14 18:47:21;;;;;;;3.70;1.20;;;;;;;;;;8279120;28;20144;-73
2023/10/14 18:51:22;;;;;;;5.10;1.48;;;;;;;;;;8277295;28;20029;-73
2023/10/14 18:55:28;;;;;;;3.40;1.17;;;;;;;;;;8279310;28;20100;-73
2023/10/14 18:59:29;;;;;;;4.70;1.25;;;;;;;;;;8275000;28;20020;-73
2023/10/14 19:03:29;;;;;;;6.30;1.02;;;;;;;;;;8279207;28;20783;-73
2023/10/14 19:07:29;;;;;;;2.58;1.20;;;;;;;;;;8269334;28;20028;-73
2023/10/14 19:11:31;;;;;;;3.47;0.93;;;;;;;;;;8269314;28;20032;-73
2023/10/14 19:15:32;;;;;;;3.92;1.20;;;;;;;;;;8284837;28;20594;-73
2023/10/14 19:19:32;;;;;;;5.40;1.20;;;;;;;;;;8282184;28;20017;-73
2023/10/14 19:23:32;;;;;;;5.35;1.40;;;;;;;;;;8285762;28;20037;-74
2023/10/14 19:27:33;;;;;;;3.65;1.27;;;;;;;;;;8284206;28;20025;-73
2023/10/14 19:31:35;;;;;;;6.32;1.20;;;;;;;;;;8285170;28;20043;-73
2023/10/14 19:35:39;;;;;;;3.38;1.17;;;;;;;;;;8269954;28;20062;-73
2023/10/14 19:39:39;;;;;;;4.35;1.20;;;;;;;;;;8282874;28;20330;-73
2023/10/14 19:43:39;;;;;;;2.75;1.10;;;;;;;;;;8283031;28;20029;-73
2023/10/14 19:47:40;;;;;;;2.55;1.00;;;;;;;;;;8283569;28;20052;-73
2023/10/14 19:51:41;;;;;;;3.58;1.20;;;;;;;;;;8283410;28;20041;-74
2023/10/14 19:55:46;;;;;;;4.10;1.27;;;;;;;;;;8284319;28;20029;-73
2023/10/14 19:59:46;;;;;;;2.78;1.10;;;;;;;;;;8262771;28;20052;-73
2023/10/14 20:03:47;;;;;;;3.60;1.10;;;;;;;;;;8280838;28;20076;-72
2023/10/14 20:07:51;;;;;;;3.75;1.20;;;;;;;;;;8284729;28;20029;-73
2023/10/14 20:11:52;;;;;;;7.25;1.77;;;;;;;;;;8271070;28;20814;-73
2023/10/14 20:15:52;;;;;;;3.85;1.83;;;;;;;;;;8281309;28;20396;-73
2023/10/14 20:19:52;;;;;;;6.22;1.98;;;;;;;;;;8281420;28;20788;-72
2023/10/14 20:23:53;;;;;;;4.20;1.30;;;;;;;;;;8283196;28;20528;-73
2023/10/14 20:27:54;;;;;;;6.68;1.52;;;;;;;;;;8282459;28;20036;-73
2023/10/14 20:31:56;;;;;;;5.47;1.00;;;;;;;;;;8280613;28;20041;-73
2023/10/14 20:35:56;;;;;;;5.00;1.10;;;;;;;;;;8281293;28;20036;-72
2023/10/14 20:39:56;;;;;;;3.88;1.10;;;;;;;;;;8279312;28;20025;-73
2023/10/14 20:43:56;;;;;;;4.05;1.88;;;;;;;;;;8280538;28;20055;-73
2023/10/14 20:48:04;;;;;;;5.10;1.30;;;;;;;;;;8280814;28;20570;-73
2023/10/14 20:52:04;;;;;;;3.78;1.30;;;;;;;;;;8280178;28;20059;-73
2023/10/14 20:56:07;;;;;;;5.82;1.73;;;;;;;;;;8265098;28;20053;-72
2023/10/14 21:00:13;;;;;;;5.30;1.40;;;;;;;;;;8277973;28;20036;-73
2023/10/14 21:04:13;;;;;;;3.63;1.48;;;;;;;;;;8282140;28;22369;-73
2023/10/14 21:08:14;;;;;;;7.05;1.70;;;;;;;;;;8264108;28;20199;-73
2023/10/14 21:12:14;;;;;;;3.53;1.25;;;;;;;;;;8277375;28;20211;-73
2023/10/14 21:16:14;;;;;;;4.32;1.30;;;;;;;;;;8279026;28;21137;-73
2023/10/14 21:20:15;;;;;;;7.70;1.45;;;;;;;;;;8277227;28;20039;-73
2023/10/14 21:24:15;;;;;;;3.63;1.15;;;;;;;;;;8280688;28;20759;-73
2023/10/14 21:28:15;;;;;;;4.07;1.55;;;;;;;;;;8277305;28;20029;-73
2023/10/14 21:32:15;;;;;;;4.90;1.40;;;;;;;;;;8277162;28;20033;-72
2023/10/14 21:36:16;;;;;;;4.93;1.50;;;;;;;;;;8280024;28;20259;-73
2023/10/14 21:40:19;;;;;;;4.38;1.80;;;;;;;;;;8281502;28;20890;-72
2023/10/14 21:44:19;;;;;;;3.83;1.65;;;;;;;;;;8282386;28;20033;-73
2023/10/14 21:48:19;;;;;;;4.93;1.70;;;;;;;;;;8277244;28;20029;-72
2023/10/14 21:52:21;;;;;;;4.85;1.15;;;;;;;;;;8281556;28;20044;-72
2023/10/14 21:56:22;;;;;;;6.00;1.50;;;;;;;;;;8265084;28;20020;-71
2023/10/14 22:00:23;;;;;;;5.03;1.63;;;;;;;;;;8279190;28;20079;-73
2023/10/14 22:04:24;;;;;;;7.45;1.75;;;;;;;;;;8278626;28;20764;-71
2023/10/14 22:08:24;;;;;;;4.70;1.42;;;;;;;;;;8278904;28;20054;-73
2023/10/14 22:12:28;;;;;;;8.70;1.52;;;;;;;;;;8279320;28;20033;-72
2023/10/14 22:16:28;;;;;;;5.95;1.60;;;;;;;;;;8280863;28;20033;-73
2023/10/14 22:20:35;;;;;;;6.00;1.50;;;;;;;;;;8279166;28;20024;-72
2023/10/14 22:24:36;;;;;;;3.88;1.60;;;;;;;;;;8281319;28;20033;-72
2023/10/14 22:28:37;;;;;;;4.13;1.40;;;;;;;;;;8264030;28;20017;-72
2023/10/14 22:32:39;;;;;;;3.78;1.30;;;;;;;;;;8278670;28;20044;-72
2023/10/14 22:36:39;;;;;;;5.05;1.23;;;;;;;;;;8277503;28;20029;-72
2023/10/14 22:40:42;;;;;;;3.63;1.50;;;;;;;;;;8281103;28;20947;-72
2023/10/14 22:44:45;;;;;;;7.63;1.50;;;;;;;;;;8284927;28;20025;-72
2023/10/14 22:48:45;;;;;;;4.15;1.20;;;;;;;;;;8284830;28;20037;-72
2023/10/14 22:53:04;;;;;;;6.13;1.58;;;;;;;;;;8285008;28;20128;-72
2023/10/14 22:57:08;;;;;;;8.63;1.88;;;;;;;;;;8287060;28;20072;-72
2023/10/14 23:01:10;;;;;;;5.63;1.50;;;;;;;;;;8285914;28;20049;-72
2023/10/14 23:05:19;;;;;;;4.93;1.40;;;;;;;;;;8285511;28;20041;-72
2023/10/14 23:09:20;;;;;;;8.93;1.63;;;;;;;;;;8284956;28;20850;-71
2023/10/14 23:13:23;;;;;;;5.57;1.33;;;;;;;;;;8281641;28;20041;-72
2023/10/14 23:17:24;;;;;;;4.18;1.50;;;;;;;;;;8270341;28;20493;-72
2023/10/14 23:21:24;;;;;;;4.50;1.50;;;;;;;;;;8273606;28;20698;-71
2023/10/14 23:25:25;;;;;;;2.70;1.02;;;;;;;;;;8283829;28;20048;-72
2023/10/14 23:29:26;;;;;;;7.25;1.73;;;;;;;;;;8281986;28;20939;-72
2023/10/14 23:33:27;;;;;;;2.42;1.00;;;;;;;;;;8284337;28;20489;-72
2023/10/14 23:37:27;;;;;;;6.18;1.75;;;;;;;;;;8283349;28;20678;-72
2023/10/14 23:41:28;;;;;;;4.88;1.25;;;;;;;;;;8285094;28;20026;-72
2023/10/14 23:45:30;;;;;;;2.10;1.40;;;;;;;;;;8273948;28;20805;-72
2023/10/14 23:49:34;;;;;;;3.70;1.52;;;;;;;;;;8267431;28;20112;-72
2023/10/14 23:53:34;;;;;;;7.77;1.43;;;;;;;;;;8274135;28;20110;-71
2023/10/14 23:57:34;;;;;;;3.75;1.40;;;;;;;;;;8276931;28;20936;-72
